Pagina principală
METAR-TAF:

METAR-TAF

Aeroporturi :

Galápagos, Ecuador

Latitudine: 00-54S, longitudine: 089-36W, elevație: 6 m

Observații meteo curente

Raportul a fost făcut în urmă cu 12 ore și 19 de minute, la 22:00 UTC
Vânt 12 kt de la Est/Nord-est
Temperatură 25°C
Umiditate 74%
Presiune 1010 hPa
Vizibilitate de 10 km sau mai mult
nu există nori sub 1.500 m și nici cumulonimbus

METAR: SEST 132200Z 07012KT CAVOK 25/20 Q1010 RMK A2985

Ora: 04:19 (10:19 UTC)


TAF: lipsă

Observații și prognoze meteo pentru peste 4.000 de aeroporturi (rapoarte METAR și TAF).

Stațiile disponibile sunt reprezentate pe hartă prin puncte galbene și roșii.

Țineți indicatorul mouse-ului pe punctul dorit pentru a vedea denumirea stației.

Apoi, faceți clic pentru a vedea observațiile și prognozele meteorologice.

Pentru a schimba harta: Pentru mărire, faceți clic pe butoanele verzi cu cruce neagră; pentru micșorare, pe butonul verde cu o liniuță; pentru hărți învecinate, pe săgețile verzi.


METAR-TAF: